createdAt,value
2018-02-13T00:02:29.470Z,5.10
2018-02-13T00:04:57.330Z,5.40
2018-02-13T00:07:25.206Z,5.17
2018-02-13T00:09:53.151Z,5.07
2018-02-13T00:12:21.020Z,5.90
2018-02-13T00:14:49.006Z,5.33
2018-02-13T00:17:16.795Z,5.43
2018-02-13T00:19:45.666Z,5.07
2018-02-13T00:22:13.506Z,5.30
2018-02-13T00:24:41.295Z,5.33
2018-02-13T00:27:09.154Z,5.00
2018-02-13T00:29:37.103Z,5.77
2018-02-13T00:32:05.169Z,5.00
2018-02-13T00:34:32.935Z,5.03
2018-02-13T00:37:01.112Z,5.30
2018-02-13T00:39:29.208Z,6.30
2018-02-13T00:41:57.069Z,6.40
2018-02-13T00:44:24.917Z,7.13
2018-02-13T00:46:52.699Z,7.20
2018-02-13T00:49:20.628Z,6.00
2018-02-13T00:51:48.377Z,6.43
2018-02-13T00:54:16.175Z,6.30
2018-02-13T00:56:43.920Z,6.53
2018-02-13T00:59:11.728Z,5.80
2018-02-13T01:01:39.603Z,7.40
2018-02-13T01:04:07.454Z,9.37
2018-02-13T01:06:35.227Z,30.77
2018-02-13T01:09:03.271Z,43.50
2018-02-13T01:11:31.046Z,58.97
2018-02-13T01:13:58.820Z,56.30
2018-02-13T01:16:26.669Z,48.20
2018-02-13T01:18:54.636Z,12.37
2018-02-13T01:21:22.631Z,6.60
2018-02-13T01:23:50.490Z,5.37
2018-02-13T01:26:18.248Z,5.60
2018-02-13T01:28:46.016Z,6.20
2018-02-13T01:31:13.888Z,6.13
2018-02-13T01:33:41.744Z,6.50
2018-02-13T01:36:09.613Z,9.00
2018-02-13T01:38:37.406Z,6.37
2018-02-13T01:41:06.044Z,6.23
2018-02-13T01:43:33.841Z,6.67
2018-02-13T01:46:01.731Z,4.80
2018-02-13T01:48:30.290Z,5.40
2018-02-13T01:50:58.033Z,4.60
2018-02-13T01:53:25.792Z,4.43
2018-02-13T01:55:53.574Z,4.50
2018-02-13T01:58:21.437Z,5.30
2018-02-13T02:00:49.385Z,5.67
2018-02-13T02:03:17.474Z,4.43
2018-02-13T02:05:45.349Z,3.83
2018-02-13T02:08:13.302Z,5.67
2018-02-13T02:10:41.075Z,7.37
2018-02-13T02:13:09.051Z,3.63
2018-02-13T02:15:36.991Z,3.77
2018-02-13T02:18:04.861Z,4.20
2018-02-13T02:20:32.748Z,4.50
2018-02-13T02:23:00.713Z,5.00
2018-02-13T02:25:29.305Z,5.20
2018-02-13T02:27:57.165Z,4.20
2018-02-13T02:30:24.920Z,4.70
2018-02-13T02:32:52.901Z,4.70
2018-02-13T02:35:20.859Z,5.77
2018-02-13T02:37:48.708Z,7.47
2018-02-13T02:40:16.494Z,7.20
2018-02-13T02:42:56.135Z,7.70
2018-02-13T02:45:23.924Z,7.50
2018-02-13T02:47:52.872Z,8.17
2018-02-13T02:50:20.845Z,8.40
2018-02-13T02:52:49.937Z,10.37
2018-02-13T02:55:17.826Z,10.30
2018-02-13T02:57:45.582Z,10.10
2018-02-13T03:00:13.532Z,10.77
2018-02-13T03:02:41.319Z,9.83
2018-02-13T03:05:09.383Z,8.30
2018-02-13T03:07:37.234Z,8.70
2018-02-13T03:10:05.122Z,7.63
2018-02-13T03:12:32.900Z,6.30
2018-02-13T03:15:01.096Z,5.47
2018-02-13T03:17:28.922Z,5.47
2018-02-13T03:19:56.794Z,5.50
2018-02-13T03:22:24.740Z,6.17
2018-02-13T03:24:52.530Z,11.30
2018-02-13T03:27:20.400Z,11.00
2018-02-13T03:29:48.252Z,10.17
2018-02-13T03:32:16.103Z,11.33
2018-02-13T03:34:43.847Z,12.03
2018-02-13T03:37:11.752Z,7.87
2018-02-13T03:39:39.494Z,8.37
2018-02-13T03:42:07.461Z,9.57
2018-02-13T03:44:35.256Z,10.67
2018-02-13T03:47:03.113Z,8.13
2018-02-13T03:49:31.070Z,9.70
2018-02-13T03:51:58.928Z,7.93
2018-02-13T03:54:26.798Z,8.60
2018-02-13T03:56:54.535Z,7.90
2018-02-13T03:59:22.445Z,8.27
2018-02-13T04:01:50.200Z,7.10
2018-02-13T04:04:18.087Z,9.00
2018-02-13T04:06:45.836Z,9.63
2018-02-13T04:09:13.581Z,8.83
2018-02-13T04:11:41.466Z,9.63
2018-02-13T04:14:09.205Z,8.90
2018-02-13T04:16:37.072Z,9.30
2018-02-13T04:19:05.061Z,6.60
2018-02-13T04:21:33.133Z,6.50
2018-02-13T04:24:01.518Z,6.60
2018-02-13T04:26:29.483Z,6.83
2018-02-13T04:28:57.528Z,6.17
2018-02-13T04:31:25.277Z,6.10
2018-02-13T04:33:53.062Z,6.73
2018-02-13T04:36:20.999Z,6.20
2018-02-13T04:38:48.759Z,6.23
2018-02-13T04:41:16.479Z,6.60
2018-02-13T04:43:44.355Z,7.03
2018-02-13T04:46:12.197Z,5.70
2018-02-13T04:48:39.969Z,6.60
2018-02-13T04:51:07.833Z,4.73
2018-02-13T04:53:35.688Z,5.23
2018-02-13T04:56:03.444Z,4.73
2018-02-13T04:58:31.535Z,4.60
2018-02-13T05:00:59.400Z,4.37
2018-02-13T05:03:27.268Z,4.87
2018-02-13T05:05:55.119Z,4.60
2018-02-13T05:08:22.856Z,4.97
2018-02-13T05:10:50.673Z,4.70
2018-02-13T05:13:19.637Z,5.10
2018-02-13T05:15:47.510Z,5.23
2018-02-13T05:18:15.281Z,5.13
2018-02-13T05:20:43.130Z,5.70
2018-02-13T05:23:11.787Z,6.03
2018-02-13T05:25:40.411Z,5.70
2018-02-13T05:28:08.187Z,5.03
2018-02-13T05:30:36.068Z,5.30
2018-02-13T05:33:03.919Z,5.07
2018-02-13T05:35:31.920Z,5.40
2018-02-13T05:38:00.614Z,5.10
2018-02-13T05:40:29.340Z,6.10
2018-02-13T05:42:57.413Z,6.07
2018-02-13T05:45:25.279Z,5.47
2018-02-13T05:47:53.057Z,5.00
2018-02-13T05:50:20.917Z,4.27
2018-02-13T05:52:48.803Z,4.10
2018-02-13T05:55:17.471Z,6.50
2018-02-13T05:57:45.357Z,7.40
2018-02-13T06:00:13.295Z,6.47
2018-02-13T06:02:41.161Z,5.07
2018-02-13T06:05:09.049Z,3.30
2018-02-13T06:07:36.997Z,3.70
2018-02-13T06:10:04.783Z,5.27
2018-02-13T06:12:33.472Z,5.33
2018-02-13T06:15:01.416Z,29.00
2018-02-13T06:17:29.309Z,37.83
2018-02-13T06:19:57.164Z,127.50
2018-02-13T06:22:24.946Z,146.47
2018-02-13T06:24:52.803Z,136.40
2018-02-13T06:27:21.459Z,125.77
2018-02-13T06:29:49.230Z,84.53
2018-02-13T06:32:17.110Z,8.73
2018-02-13T06:34:45.059Z,7.60
2018-02-13T06:37:13.183Z,8.10
2018-02-13T06:39:41.799Z,6.60
2018-02-13T06:42:09.682Z,3.10
2018-02-13T06:44:37.882Z,3.83
2018-02-13T06:47:05.838Z,4.90
2018-02-13T06:49:33.795Z,3.37
2018-02-13T06:52:01.685Z,5.97
2018-02-13T06:54:29.970Z,59.50
2018-02-13T06:56:57.805Z,69.30
2018-02-13T06:59:25.687Z,56.03
2018-02-13T07:01:53.555Z,26.60
2018-02-13T07:04:22.020Z,34.87
2018-02-13T07:06:49.899Z,30.33
2018-02-13T07:09:17.750Z,21.47
2018-02-13T07:11:45.612Z,16.53
2018-02-13T07:14:13.504Z,12.27
2018-02-13T07:16:41.451Z,11.10
2018-02-13T07:19:09.331Z,21.57
2018-02-13T07:21:37.218Z,16.67
2018-02-13T07:24:05.170Z,11.43
2018-02-13T07:26:33.041Z,26.43
2018-02-13T07:29:00.840Z,30.50
2018-02-13T07:31:29.387Z,35.77
2018-02-13T07:33:57.430Z,31.50
2018-02-13T07:36:25.218Z,35.30
2018-02-13T07:38:53.085Z,48.43
2018-02-13T07:41:20.961Z,54.27
2018-02-13T07:43:48.723Z,61.63
2018-02-13T07:46:16.588Z,59.20
2018-02-13T07:48:44.531Z,58.23
2018-02-13T07:51:12.443Z,41.10
2018-02-13T07:53:41.007Z,41.60
2018-02-13T07:56:09.474Z,37.47
2018-02-13T07:58:37.361Z,43.73
2018-02-13T08:01:05.278Z,8.70
2018-02-13T08:03:33.176Z,4.40
2018-02-13T08:06:01.130Z,3.57
2018-02-13T08:08:29.839Z,3.97
2018-02-13T08:10:57.704Z,3.20
2018-02-13T08:13:25.595Z,3.30
2018-02-13T08:15:54.249Z,2.97
2018-02-13T08:18:22.126Z,3.40
2018-02-13T08:20:49.985Z,3.60
2018-02-13T08:23:18.009Z,3.27
2018-02-13T08:25:45.806Z,4.20
2018-02-13T08:28:13.795Z,4.90
2018-02-13T08:30:41.759Z,5.00
2018-02-13T08:33:09.701Z,4.33
2018-02-13T08:35:37.504Z,5.63
2018-02-13T08:38:05.334Z,5.33
2018-02-13T08:40:33.134Z,4.67
2018-02-13T08:43:00.950Z,4.37
2018-02-13T08:45:28.941Z,5.60
2018-02-13T08:47:56.820Z,4.33
2018-02-13T08:50:24.689Z,4.30
2018-02-13T08:52:52.568Z,3.20
2018-02-13T08:55:21.862Z,3.73
2018-02-13T08:57:49.611Z,3.07
2018-02-13T09:00:17.481Z,2.93
2018-02-13T09:02:45.461Z,7.17
2018-02-13T09:05:13.430Z,7.57
2018-02-13T09:07:41.291Z,12.20
2018-02-13T09:10:09.165Z,29.40
2018-02-13T09:12:37.101Z,8.33
2018-02-13T09:15:04.991Z,4.03
2018-02-13T09:17:32.858Z,3.53
2018-02-13T09:20:00.791Z,3.47
2018-02-13T09:22:28.678Z,3.83
2018-02-13T09:24:57.072Z,4.00
2018-02-13T09:27:24.939Z,3.80
2018-02-13T09:29:52.792Z,3.97
2018-02-13T09:32:20.653Z,3.80
2018-02-13T09:34:48.434Z,3.20
2018-02-13T09:37:16.193Z,3.50
2018-02-13T09:39:44.046Z,3.53
2018-02-13T09:42:11.931Z,3.37
2018-02-13T09:44:40.518Z,3.13
2018-02-13T09:47:08.317Z,3.37
2018-02-13T09:49:36.846Z,2.73
2018-02-13T09:52:04.811Z,3.30
2018-02-13T09:54:32.705Z,3.80
2018-02-13T09:57:00.613Z,3.03
2018-02-13T09:59:28.537Z,4.67
2018-02-13T10:01:56.406Z,3.93
2018-02-13T10:04:24.345Z,3.77
2018-02-13T10:06:52.140Z,4.20
2018-02-13T10:09:20.798Z,5.10
2018-02-13T10:11:48.774Z,5.10
2018-02-13T10:14:16.534Z,6.90
2018-02-13T10:16:44.418Z,4.17
2018-02-13T10:19:12.310Z,3.97
2018-02-13T10:21:40.960Z,3.00
2018-02-13T10:24:08.822Z,3.77
2018-02-13T10:26:36.703Z,3.23
2018-02-13T10:29:04.652Z,3.77
2018-02-13T10:31:32.544Z,3.40
2018-02-13T10:34:00.416Z,2.97
2018-02-13T10:36:28.459Z,4.57
2018-02-13T10:38:56.252Z,5.70
2018-02-13T10:41:25.012Z,3.33
2018-02-13T10:43:52.896Z,6.83
2018-02-13T10:46:20.854Z,6.67
2018-02-13T10:48:48.814Z,5.43
2018-02-13T10:51:16.585Z,2.60
2018-02-13T10:53:44.364Z,3.83
2018-02-13T10:56:12.156Z,4.47
2018-02-13T10:58:40.862Z,3.37
2018-02-13T11:01:14.419Z,3.60
2018-02-13T11:03:42.465Z,4.63
2018-02-13T11:06:10.371Z,3.33
2018-02-13T11:08:38.297Z,3.33
2018-02-13T11:11:06.190Z,3.87
2018-02-13T11:13:33.946Z,3.90
2018-02-13T11:16:02.440Z,5.30
2018-02-13T11:18:30.306Z,5.30
2018-02-13T11:20:58.264Z,4.43
2018-02-13T11:23:26.765Z,4.97
2018-02-13T11:25:54.615Z,4.10
2018-02-13T11:28:22.685Z,3.53
2018-02-13T11:30:51.247Z,3.60
2018-02-13T11:33:19.130Z,3.60
2018-02-13T11:35:47.101Z,3.77
2018-02-13T11:38:14.949Z,4.13
2018-02-13T11:40:42.858Z,3.87
2018-02-13T11:43:10.700Z,4.50
2018-02-13T11:45:38.650Z,4.20
2018-02-13T11:48:06.545Z,4.17
2018-02-13T11:50:34.511Z,3.90
2018-02-13T11:53:02.460Z,2.97
2018-02-13T11:55:30.359Z,3.27
2018-02-13T11:57:58.409Z,3.90
2018-02-13T12:00:26.463Z,3.30
2018-02-13T12:02:54.439Z,4.30
2018-02-13T12:05:22.400Z,5.90
2018-02-13T12:07:50.292Z,4.60
2018-02-13T12:10:18.352Z,4.17
2018-02-13T12:12:46.311Z,3.20
2018-02-13T12:15:14.286Z,3.50
2018-02-13T12:17:42.346Z,3.20
2018-02-13T12:20:10.418Z,4.47
2018-02-13T12:22:38.311Z,3.83
2018-02-13T12:25:06.176Z,4.03
2018-02-13T12:27:34.048Z,4.40
2018-02-13T12:30:02.265Z,5.03
2018-02-13T12:32:30.165Z,4.60
2018-02-13T12:34:58.152Z,5.00
2018-02-13T12:37:26.106Z,4.20
2018-02-13T12:39:54.786Z,4.60
2018-02-13T12:42:22.981Z,3.67
2018-02-13T12:44:51.038Z,4.10
2018-02-13T12:47:19.104Z,4.90
2018-02-13T12:49:47.107Z,5.00
2018-02-13T12:52:14.971Z,3.70
2018-02-13T12:54:42.927Z,3.93
2018-02-13T12:57:10.876Z,4.07
2018-02-13T12:59:38.657Z,3.57
2018-02-13T13:02:06.820Z,3.70
2018-02-13T13:04:34.815Z,4.07
2018-02-13T13:07:04.319Z,4.23
2018-02-13T13:09:32.979Z,4.13
2018-02-13T13:12:00.904Z,4.00
2018-02-13T13:14:29.637Z,4.53
2018-02-13T13:16:57.732Z,5.40
2018-02-13T13:19:25.697Z,4.43
2018-02-13T13:21:53.945Z,5.00
2018-02-13T13:24:22.016Z,3.60
2018-02-13T13:26:50.193Z,3.70
2018-02-13T13:29:18.169Z,4.73
2018-02-13T13:31:45.964Z,3.80
2018-02-13T13:34:13.790Z,4.17
2018-02-13T13:36:41.648Z,3.80
2018-02-13T13:39:09.581Z,3.53
2018-02-13T13:41:38.235Z,4.43
2018-02-13T13:44:06.102Z,4.83
2018-02-13T13:46:34.249Z,4.57
2018-02-13T13:49:02.549Z,4.30
2018-02-13T13:51:30.604Z,4.07
2018-02-13T13:53:58.509Z,4.10
2018-02-13T13:56:27.350Z,4.47
2018-02-13T13:58:55.355Z,4.00
2018-02-13T14:01:24.129Z,3.90
2018-02-13T14:03:52.080Z,3.93
2018-02-13T14:06:20.398Z,3.50
2018-02-13T14:08:49.148Z,3.73
2018-02-13T14:11:17.280Z,4.00
2018-02-13T14:13:45.462Z,3.80
2018-02-13T14:16:13.387Z,4.50
2018-02-13T14:18:42.175Z,4.87
2018-02-13T14:21:10.123Z,4.03
2018-02-13T14:23:38.186Z,4.57
2018-02-13T14:26:07.074Z,4.13
2018-02-13T14:28:35.069Z,4.23
2018-02-13T14:31:03.229Z,4.10
2018-02-13T14:33:31.279Z,3.60
2018-02-13T14:35:59.290Z,5.13
2018-02-13T14:38:27.211Z,4.73
2018-02-13T14:40:55.320Z,7.20
2018-02-13T14:43:23.510Z,5.70
2018-02-13T14:45:51.458Z,5.30
2018-02-13T14:48:19.630Z,4.60
2018-02-13T14:50:47.502Z,4.60
2018-02-13T14:53:15.518Z,5.70
2018-02-13T14:55:43.629Z,6.00
2018-02-13T14:58:12.378Z,5.23
2018-02-13T15:00:40.687Z,7.60
2018-02-13T15:03:08.756Z,8.90
2018-02-13T15:05:36.729Z,6.57
2018-02-13T15:08:04.842Z,6.00
2018-02-13T15:10:33.737Z,6.73
2018-02-13T15:13:02.764Z,6.90
2018-02-13T15:15:31.061Z,7.10
2018-02-13T15:18:06.535Z,7.63
2018-02-13T15:20:34.715Z,6.43
2018-02-13T15:23:03.583Z,7.10
2018-02-13T15:25:32.762Z,6.93
2018-02-13T15:28:00.771Z,5.00
2018-02-13T15:30:29.113Z,4.50
2018-02-13T15:32:57.548Z,4.40
2018-02-13T15:35:25.392Z,3.47
2018-02-13T15:37:53.839Z,3.70
2018-02-13T15:40:22.166Z,3.97
2018-02-13T15:42:50.902Z,3.67
2018-02-13T15:45:18.701Z,3.47
2018-02-13T15:47:47.053Z,3.17
2018-02-13T15:50:15.011Z,3.30
2018-02-13T15:52:43.395Z,2.90
2018-02-13T15:55:11.360Z,3.70
2018-02-13T15:57:40.294Z,3.53
2018-02-13T16:00:09.082Z,3.70
2018-02-13T16:02:37.827Z,4.33
2018-02-13T16:05:05.790Z,3.33
2018-02-13T16:07:34.788Z,3.63
2018-02-13T16:10:03.021Z,3.87
2018-02-13T16:12:31.138Z,3.87
2018-02-13T16:14:59.140Z,3.70
2018-02-13T16:17:27.285Z,4.60
2018-02-13T16:19:55.355Z,5.03
2018-02-13T16:22:23.355Z,5.60
2018-02-13T16:24:51.205Z,6.40
2018-02-13T16:27:19.354Z,5.67
2018-02-13T16:29:48.426Z,5.33
2018-02-13T16:32:16.345Z,6.10
2018-02-13T16:34:44.575Z,5.53
2018-02-13T16:37:12.588Z,6.93
2018-02-13T16:39:40.453Z,6.07
2018-02-13T16:42:08.494Z,6.40
2018-02-13T16:44:36.698Z,6.67
2018-02-13T16:47:05.683Z,6.17
2018-02-13T16:49:33.706Z,6.50
2018-02-13T16:52:01.955Z,5.60
2018-02-13T16:54:29.734Z,5.47
2018-02-13T16:56:57.691Z,6.00
2018-02-13T16:59:26.536Z,6.43
2018-02-13T17:01:54.607Z,6.90
2018-02-13T17:04:23.022Z,6.70
2018-02-13T17:06:51.882Z,7.40
2018-02-13T17:09:20.304Z,7.83
2018-02-13T17:11:49.233Z,8.20
2018-02-13T17:14:17.177Z,8.40
2018-02-13T17:16:45.214Z,7.70
2018-02-13T17:19:13.885Z,8.57
2018-02-13T17:21:41.826Z,9.20
2018-02-13T17:24:09.850Z,8.87
2018-02-13T17:26:38.516Z,8.77
2018-02-13T17:29:06.481Z,9.70
2018-02-13T17:31:34.341Z,9.87
2018-02-13T17:34:02.893Z,9.87
2018-02-13T17:36:31.079Z,8.67
2018-02-13T17:38:59.477Z,9.17
2018-02-13T17:41:27.532Z,9.03
2018-02-13T17:43:55.531Z,8.60
2018-02-13T17:46:23.895Z,7.20
2018-02-13T17:48:52.069Z,6.77
2018-02-13T17:51:20.252Z,8.57
2018-02-13T17:53:48.853Z,7.97
2018-02-13T17:56:17.089Z,8.43
2018-02-13T17:58:44.953Z,8.47
2018-02-13T18:01:13.201Z,8.80
2018-02-13T18:03:41.200Z,9.03
2018-02-13T18:06:09.688Z,7.87
2018-02-13T18:08:37.639Z,7.23
2018-02-13T18:11:05.717Z,8.23
2018-02-13T18:13:33.845Z,7.33
2018-02-13T18:16:02.809Z,6.70
2018-02-13T18:18:32.636Z,7.90
2018-02-13T18:21:01.721Z,8.50
2018-02-13T18:23:30.777Z,9.10
2018-02-13T18:25:58.916Z,8.03
2018-02-13T18:28:27.347Z,9.17
2018-02-13T18:30:55.326Z,7.53
2018-02-13T18:33:24.110Z,8.30
2018-02-13T18:35:52.064Z,7.30
2018-02-13T18:38:20.339Z,8.07
2018-02-13T18:40:48.204Z,7.97
2018-02-13T18:43:16.314Z,7.47
2018-02-13T18:45:45.278Z,6.97
2018-02-13T18:48:13.336Z,6.80
2018-02-13T18:50:42.549Z,7.13
2018-02-13T18:55:38.914Z,6.33
2018-02-13T18:58:07.071Z,5.23
2018-02-13T19:00:35.131Z,5.90
2018-02-13T19:03:03.878Z,5.73
2018-02-13T19:05:33.557Z,5.70
2018-02-13T19:08:03.681Z,5.93
2018-02-13T19:10:33.109Z,6.07
2018-02-13T19:13:02.453Z,5.87
2018-02-13T19:15:31.000Z,4.37
2018-02-13T19:17:59.465Z,4.57
2018-02-13T19:20:29.371Z,5.07
2018-02-13T19:22:57.631Z,4.93
2018-02-13T19:25:27.068Z,4.20
2018-02-13T19:27:55.488Z,4.17
2018-02-13T19:30:25.955Z,4.73
2018-02-13T19:32:54.892Z,5.33
2018-02-13T19:35:23.782Z,5.30
2018-02-13T19:37:52.300Z,4.37
2018-02-13T19:40:20.860Z,4.80
2018-02-13T19:42:49.555Z,4.67
2018-02-13T19:45:18.271Z,4.80
2018-02-13T19:47:47.324Z,4.37
2018-02-13T19:50:15.742Z,5.23
2018-02-13T19:52:44.705Z,4.20
2018-02-13T19:55:12.888Z,4.50
2018-02-13T19:57:41.934Z,4.30
2018-02-13T20:00:10.432Z,4.57
2018-02-13T20:02:38.660Z,3.87
2018-02-13T20:05:07.830Z,4.00
2018-02-13T20:07:36.753Z,3.83
2018-02-13T20:10:04.996Z,3.80
2018-02-13T20:12:34.122Z,4.00
2018-02-13T20:15:03.204Z,4.37
2018-02-13T20:17:32.463Z,2.97
2018-02-13T20:20:00.521Z,4.03
2018-02-13T20:22:28.811Z,4.07
2018-02-13T20:24:57.190Z,4.00
2018-02-13T20:27:25.479Z,3.27
2018-02-13T20:29:54.249Z,4.00
2018-02-13T20:32:26.068Z,3.40
2018-02-13T20:34:54.523Z,3.40
2018-02-13T20:37:24.467Z,3.03
2018-02-13T20:39:54.832Z,3.03
2018-02-13T20:42:24.042Z,3.57
2018-02-13T20:44:54.651Z,3.20
2018-02-13T20:47:22.847Z,2.80
2018-02-13T20:49:53.412Z,3.70
2018-02-13T20:52:22.149Z,3.40
2018-02-13T20:54:50.224Z,3.40
2018-02-13T20:57:18.776Z,3.17
2018-02-13T20:59:46.972Z,3.20
2018-02-13T21:02:15.312Z,3.13
2018-02-13T21:04:43.550Z,2.70
2018-02-13T21:07:11.665Z,2.90
2018-02-13T21:09:39.869Z,4.00
2018-02-13T21:12:07.845Z,4.10
2018-02-13T21:14:35.722Z,3.47
2018-02-13T21:17:03.564Z,3.60
2018-02-13T21:19:31.612Z,3.00
2018-02-13T21:21:59.559Z,2.77
2018-02-13T21:24:28.321Z,2.87
2018-02-13T21:26:56.161Z,3.13
2018-02-13T21:29:24.236Z,2.60
2018-02-13T21:31:52.053Z,2.77
2018-02-13T21:34:34.003Z,2.93
2018-02-13T21:37:03.310Z,2.90
2018-02-13T21:39:32.476Z,3.50
2018-02-13T21:42:02.829Z,2.97
2018-02-13T21:44:32.524Z,3.50
2018-02-13T21:47:01.822Z,3.50
2018-02-13T21:49:31.008Z,2.87
2018-02-13T21:52:01.138Z,2.53
2018-02-13T21:54:30.387Z,2.60
2018-02-13T21:56:59.575Z,2.70
2018-02-13T21:59:28.844Z,2.27
2018-02-13T22:01:58.066Z,2.30
2018-02-13T22:04:27.228Z,2.70
2018-02-13T22:06:56.362Z,3.20
2018-02-13T22:09:25.561Z,1.90
2018-02-13T22:11:54.757Z,2.07
2018-02-13T22:14:23.864Z,1.93
2018-02-13T22:16:53.122Z,2.50
2018-02-13T22:19:22.520Z,2.00
2018-02-13T22:21:51.666Z,2.00
2018-02-13T22:24:20.922Z,1.90
2018-02-13T22:26:50.319Z,1.90
2018-02-13T22:29:19.510Z,2.27
2018-02-13T22:31:48.847Z,1.73
2018-02-13T22:34:17.961Z,1.97
2018-02-13T22:36:47.253Z,2.20
2018-02-13T22:39:16.301Z,2.23
2018-02-13T22:41:45.521Z,1.97
2018-02-13T22:44:14.670Z,1.50
2018-02-13T22:46:43.890Z,1.60
2018-02-13T22:49:13.085Z,1.87
2018-02-13T22:51:42.417Z,1.77
2018-02-13T22:54:11.515Z,1.90
2018-02-13T22:56:40.784Z,2.20
2018-02-13T22:59:09.978Z,1.40
2018-02-13T23:01:39.109Z,2.53
2018-02-13T23:04:08.521Z,2.17
2018-02-13T23:06:37.783Z,1.90
2018-02-13T23:09:07.085Z,1.87
2018-02-13T23:11:36.400Z,2.10
2018-02-13T23:14:05.511Z,2.10
2018-02-13T23:16:34.598Z,2.17
2018-02-13T23:19:03.798Z,2.00
2018-02-13T23:21:32.993Z,2.00
2018-02-13T23:24:02.269Z,1.80
2018-02-13T23:26:31.457Z,2.00
2018-02-13T23:29:00.963Z,2.00
2018-02-13T23:31:30.096Z,1.50
2018-02-13T23:33:59.291Z,1.70
2018-02-13T23:36:28.451Z,1.93
2018-02-13T23:38:57.599Z,2.00
2018-02-13T23:41:26.776Z,1.40
2018-02-13T23:43:56.074Z,1.63
2018-02-13T23:46:25.277Z,1.47
2018-02-13T23:48:54.746Z,1.50
2018-02-13T23:51:24.047Z,1.60
2018-02-13T23:53:53.383Z,1.73
2018-02-13T23:56:22.605Z,2.10
2018-02-13T23:58:51.850Z,1.37
